Time;durP1;ratioP1;P1;durP2;ratioP2;P2;SDS_P1;SDS_P2;PMS_P1;PMS_P2;Temp;Humidity;BMP_temperature;BMP_pressure;BME280_temperature;BME280_humidity;BME280_pressure;Samples;Min_cycle;Max_cycle;Signal;HPM_P1;HPM_P2
2023/07/23 00:00:47;;;;;;;3.20;2.30;;;20.60;46.00;;;22.06;37.49;97361.50;5032340;28;20044;-46
2023/07/23 00:03:15;;;;;;;3.60;2.58;;;20.50;46.30;;;22.02;37.68;97363.06;5032196;28;20057;-49
2023/07/23 00:05:47;;;;;;;3.50;2.40;;;20.50;46.60;;;21.98;37.41;97360.03;5032685;28;20037;-48
2023/07/23 00:08:14;;;;;;;3.35;2.50;;;20.40;46.70;;;21.96;37.94;97356.72;5031728;28;20053;-46
2023/07/23 00:10:42;;;;;;;3.00;2.28;;;20.50;47.20;;;21.91;37.88;97356.63;5030696;28;20500;-47
2023/07/23 00:13:10;;;;;;;3.88;2.50;;;20.40;47.40;;;21.88;37.76;97357.09;5031880;28;20428;-47
2023/07/23 00:15:37;;;;;;;2.88;2.00;;;20.30;47.40;;;21.90;37.63;97356.88;5032082;28;20052;-48
2023/07/23 00:18:05;;;;;;;4.47;2.40;;;20.30;47.40;;;21.85;38.04;97356.75;5031682;28;20053;-46
2023/07/23 00:20:32;;;;;;;3.97;2.10;;;20.30;47.80;;;21.86;37.75;97364.66;5031759;28;20413;-46
2023/07/23 00:23:00;;;;;;;2.78;2.30;;;20.30;47.20;;;21.87;37.77;97360.88;5031844;28;20050;-49
2023/07/23 00:25:28;;;;;;;3.05;2.08;;;20.40;47.10;;;21.85;37.90;97365.72;5031901;28;20050;-49
2023/07/23 00:27:56;;;;;;;3.92;2.45;;;20.40;47.10;;;21.86;37.87;97361.94;5030391;28;20053;-49
2023/07/23 00:30:23;;;;;;;3.47;2.55;;;20.40;47.20;;;21.80;38.11;97361.00;5031886;28;20527;-47
2023/07/23 00:32:51;;;;;;;3.33;2.40;;;20.30;47.50;;;21.81;38.33;97364.56;5030427;28;20501;-47
2023/07/23 00:35:20;;;;;;;3.08;2.40;;;20.30;47.30;;;21.83;38.17;97363.25;5030129;28;20046;-47
2023/07/23 00:37:47;;;;;;;9.30;2.65;;;20.30;47.30;;;21.81;38.25;97354.53;5030238;28;20056;-46
2023/07/23 00:40:15;;;;;;;4.43;2.15;;;20.30;47.40;;;21.82;37.98;97350.75;5030942;28;20485;-45
2023/07/23 00:42:43;;;;;;;5.95;2.33;;;20.30;47.50;;;21.79;38.30;97353.97;5031445;28;20421;-47
2023/07/23 00:45:10;;;;;;;4.03;2.47;;;20.30;47.40;;;21.79;38.26;97358.53;5030368;28;20068;-46
2023/07/23 00:47:39;;;;;;;2.40;2.08;;;20.30;47.50;;;21.78;38.12;97355.00;5029667;28;20045;-48
2023/07/23 00:50:08;;;;;;;3.70;2.53;;;20.30;47.40;;;21.77;38.47;97361.50;5030025;28;20528;-50
2023/07/23 00:52:36;;;;;;;3.38;2.30;;;20.30;47.60;;;21.76;38.21;97357.13;5028300;28;20041;-46
2023/07/23 00:55:04;;;;;;;4.18;3.13;;;20.20;47.60;;;21.72;38.19;97355.97;5030026;28;20061;-48
2023/07/23 00:57:32;;;;;;;5.05;2.60;;;20.20;47.70;;;21.66;38.43;97356.13;5030849;28;20053;-46
2023/07/23 01:00:00;;;;;;;3.15;2.42;;;20.10;48.00;;;21.66;38.40;97353.41;5031689;28;20048;-45
2023/07/23 01:02:28;;;;;;;4.10;2.78;;;20.10;48.20;;;21.63;38.49;97350.13;5031737;28;20053;-48
2023/07/23 01:04:56;;;;;;;3.15;2.30;;;20.10;48.40;;;21.59;38.83;97348.13;5029787;28;20053;-46
2023/07/23 01:07:25;;;;;;;2.92;2.30;;;20.00;48.10;;;21.57;38.77;97347.53;5029549;28;20548;-47
2023/07/23 01:09:54;;;;;;;4.65;2.22;;;20.00;48.10;;;21.52;38.79;97350.13;5028858;28;20074;-46
2023/07/23 01:12:21;;;;;;;3.17;2.40;;;19.90;48.40;;;21.52;38.43;97340.13;5030222;28;20054;-45
2023/07/23 01:14:50;;;;;;;7.53;2.10;;;19.90;48.50;;;21.48;39.06;97335.41;5031107;28;20030;-47
2023/07/23 01:17:19;;;;;;;3.85;2.72;;;19.90;48.70;;;21.43;39.03;97339.66;5029446;28;20133;-49
2023/07/23 01:19:58;;;;;;;3.17;2.50;;;19.80;48.90;;;21.43;38.88;97336.97;5030221;28;20037;-47
2023/07/23 01:22:26;;;;;;;4.18;2.65;;;19.80;48.70;;;21.43;38.85;97333.41;5029197;28;20057;-51
2023/07/23 01:24:54;;;;;;;3.35;2.72;;;19.90;48.60;;;21.40;39.20;97329.28;5029540;28;20053;-48
2023/07/23 01:27:21;;;;;;;3.33;2.28;;;19.90;48.70;;;21.35;39.09;97325.66;5030673;28;20057;-47
2023/07/23 01:29:49;;;;;;;4.07;2.05;;;19.90;48.70;;;21.31;39.03;97328.00;5030111;28;20052;-45
2023/07/23 01:32:17;;;;;;;3.88;2.45;;;19.80;49.00;;;21.26;39.10;97327.88;5029900;28;20072;-49
2023/07/23 01:34:46;;;;;;;3.90;2.45;;;19.70;49.00;;;21.31;39.25;97319.06;5031418;28;20049;-48
2023/07/23 01:37:15;;;;;;;4.13;2.58;;;19.80;49.10;;;21.26;39.37;97319.75;5028816;28;20072;-49
2023/07/23 01:39:44;;;;;;;2.72;2.20;;;19.70;49.10;;;21.28;39.18;97320.34;5005837;28;20042;-51
2023/07/23 01:42:12;;;;;;;3.08;2.35;;;19.70;49.20;;;21.28;39.43;97319.53;5030981;28;20045;-46
2023/07/23 01:44:41;;;;;;;4.40;2.50;;;19.70;49.20;;;21.28;39.00;97322.25;5029245;28;20060;-50
2023/07/23 01:47:09;;;;;;;2.80;2.30;;;19.70;49.30;;;21.22;39.23;97319.41;5029723;28;20521;-53
2023/07/23 01:49:37;;;;;;;4.05;2.85;;;19.80;49.30;;;21.22;39.44;97315.88;5030967;28;20046;-53
2023/07/23 01:52:05;;;;;;;2.60;2.10;;;19.70;50.00;;;21.19;39.55;97308.22;5029791;28;20046;-53
2023/07/23 01:54:32;;;;;;;3.95;2.45;;;19.70;49.90;;;21.17;39.45;97304.94;5029942;28;20409;-54
2023/07/23 01:57:02;;;;;;;3.42;2.72;;;19.60;49.60;;;21.15;39.52;97307.06;5028993;28;20485;-51
2023/07/23 01:59:30;;;;;;;3.03;2.50;;;19.70;49.60;;;21.14;39.53;97310.84;5029527;28;20528;-51
2023/07/23 02:01:57;;;;;;;3.58;2.60;;;19.70;49.70;;;21.11;39.75;97312.16;5013259;28;20052;-49
2023/07/23 02:04:25;;;;;;;3.38;2.50;;;19.60;49.70;;;21.05;39.85;97313.06;5032498;28;20048;-51
2023/07/23 02:06:53;;;;;;;4.10;2.72;;;19.60;50.20;;;21.04;39.78;97309.56;5032978;28;20046;-50
2023/07/23 02:09:20;;;;;;;3.10;2.72;;;19.50;50.70;;;21.00;40.10;97313.78;5032761;28;20046;-50
2023/07/23 02:11:48;;;;;;;4.38;2.85;;;19.50;50.30;;;21.00;39.88;97310.28;5016677;28;20390;-50
2023/07/23 02:14:16;;;;;;;4.05;2.45;;;19.50;50.00;;;20.99;39.93;97308.59;5032889;28;20050;-49
2023/07/23 02:16:43;;;;;;;3.50;2.25;;;19.60;49.90;;;21.05;39.67;97318.50;5032804;28;20513;-52
2023/07/23 02:19:13;;;;;;;3.67;2.78;;;19.60;49.80;;;21.01;40.13;97310.03;5034522;28;20416;-52
2023/07/23 02:21:41;;;;;;;4.35;2.88;;;19.60;50.20;;;21.04;40.15;97306.84;5033025;28;20467;-51
2023/07/23 02:24:08;;;;;;;5.13;2.78;;;19.60;50.00;;;21.04;40.23;97314.16;5032870;28;20057;-50
2023/07/23 02:26:36;;;;;;;3.85;2.50;;;19.60;49.90;;;21.00;40.03;97311.09;5033629;28;20052;-52
2023/07/23 02:29:04;;;;;;;3.08;2.20;;;19.60;49.90;;;20.96;39.96;97304.50;5032452;28;20062;-53
2023/07/23 02:31:32;;;;;;;5.32;2.88;;;19.60;50.20;;;20.95;40.48;97307.44;5034315;28;20053;-52
2023/07/23 02:34:00;;;;;;;3.70;2.60;;;19.50;50.30;;;20.97;40.41;97321.56;5032903;28;20295;-54
2023/07/23 02:36:28;;;;;;;4.65;2.85;;;19.50;50.30;;;20.96;40.13;97314.50;5032608;28;20049;-51
2023/07/23 02:38:55;;;;;;;5.38;3.10;;;19.50;50.50;;;20.94;40.08;97312.03;5032323;28;20501;-53
2023/07/23 02:41:23;;;;;;;4.00;2.45;;;19.50;50.60;;;20.94;40.62;97316.63;5032524;28;20054;-52
2023/07/23 02:43:52;;;;;;;2.88;2.58;;;19.40;50.60;;;20.90;40.59;97316.28;5032917;28;20101;-49
2023/07/23 02:46:20;;;;;;;2.47;2.25;;;19.40;50.90;;;20.83;40.76;97315.56;5032445;28;20053;-50
2023/07/23 02:48:47;;;;;;;4.03;2.78;;;19.30;50.80;;;20.83;40.75;97315.56;5033502;28;20041;-53
2023/07/23 02:51:15;;;;;;;4.07;2.42;;;19.40;50.70;;;20.77;40.97;97316.50;5034117;28;20497;-50
2023/07/23 02:53:43;;;;;;;4.13;2.33;;;19.40;50.90;;;20.80;40.89;97319.56;5033675;28;20048;-49
2023/07/23 02:56:10;;;;;;;3.85;2.47;;;19.30;50.80;;;20.76;40.70;97322.97;5032765;28;20058;-48
2023/07/23 02:58:38;;;;;;;3.53;2.42;;;19.40;50.50;;;20.80;40.39;97321.44;5033085;28;20038;-50
2023/07/23 03:01:06;;;;;;;2.88;2.53;;;19.40;50.70;;;20.83;40.54;97321.78;5032172;28;20045;-51
2023/07/23 03:03:33;;;;;;;5.22;2.60;;;19.40;50.60;;;20.84;40.46;97322.63;5032271;28;20065;-49
2023/07/23 03:06:02;;;;;;;3.13;2.47;;;19.40;50.70;;;20.86;40.71;97323.22;5033422;28;20045;-52
2023/07/23 03:08:29;;;;;;;3.42;2.35;;;19.40;50.50;;;20.89;40.43;97327.31;5032809;28;20041;-49
2023/07/23 03:10:57;;;;;;;4.30;2.40;;;19.50;50.70;;;20.84;40.74;97319.94;5031850;28;20048;-49
2023/07/23 03:13:27;;;;;;;3.03;2.55;;;19.50;50.60;;;20.85;40.63;97321.56;5032341;28;20045;-51
2023/07/23 03:15:54;;;;;;;3.42;2.30;;;19.40;50.50;;;20.86;40.53;97325.94;5031547;28;20433;-53
2023/07/23 03:18:22;;;;;;;2.92;2.53;;;19.50;50.50;;;20.81;40.52;97326.59;5032839;28;20053;-51
2023/07/23 03:20:50;;;;;;;2.88;2.58;;;19.40;50.60;;;20.81;40.60;97323.09;5032132;28;20422;-50
2023/07/23 03:23:17;;;;;;;4.13;2.45;;;19.40;50.70;;;20.71;40.85;97320.97;5032022;28;20053;-53
2023/07/23 03:25:45;;;;;;;2.95;2.35;;;19.30;50.90;;;20.76;40.97;97331.91;5031616;28;20523;-48
2023/07/23 03:28:12;;;;;;;3.85;2.42;;;19.40;50.80;;;20.80;40.58;97334.94;5032581;28;20042;-52
2023/07/23 03:30:40;;;;;;;4.63;2.60;;;19.40;50.50;;;20.79;40.71;97334.13;5031767;28;20056;-49
2023/07/23 03:33:07;;;;;;;3.83;2.58;;;19.40;50.60;;;20.80;40.70;97329.53;5032392;28;20045;-51
2023/07/23 03:35:35;;;;;;;3.58;2.42;;;19.40;50.70;;;20.77;40.89;97327.31;5032629;28;20054;-53
2023/07/23 03:38:03;;;;;;;3.53;2.65;;;19.30;51.00;;;20.76;40.97;97321.09;5031149;28;20073;-50
2023/07/23 03:40:30;;;;;;;3.30;2.40;;;19.30;51.20;;;20.72;40.95;97336.13;5032963;28;20038;-49
2023/07/23 03:42:58;;;;;;;4.47;2.33;;;19.20;51.30;;;20.65;41.13;97325.44;5032008;28;20042;-48
2023/07/23 03:45:25;;;;;;;3.40;2.70;;;19.20;51.30;;;20.64;40.91;97325.66;5031019;28;20072;-47
2023/07/23 03:47:53;;;;;;;3.65;2.47;;;19.20;51.30;;;20.65;40.96;97332.72;5014597;28;20048;-51
2023/07/23 03:50:21;;;;;;;5.38;3.22;;;19.20;51.30;;;20.66;40.88;97328.94;5032762;28;20049;-50
2023/07/23 03:52:48;;;;;;;3.22;2.60;;;19.20;51.20;;;20.57;41.36;97330.31;5032996;28;20053;-52
2023/07/23 03:55:16;;;;;;;3.22;2.53;;;19.10;51.80;;;20.56;41.31;97329.50;5030903;28;20057;-51
2023/07/23 03:57:43;;;;;;;3.03;2.30;;;19.10;51.70;;;20.49;41.56;97328.78;5032141;28;20042;-51
2023/07/23 04:00:12;;;;;;;4.28;2.75;;;19.10;51.80;;;20.50;41.27;97338.53;5031305;28;20539;-48
2023/07/23 04:02:41;;;;;;;3.97;2.72;;;19.00;51.90;;;20.49;41.40;97333.34;5032546;28;20061;-51
2023/07/23 04:05:09;;;;;;;3.35;2.83;;;19.00;51.70;;;20.50;41.39;97335.84;5032264;28;20497;-50
2023/07/23 04:07:37;;;;;;;3.60;2.58;;;19.00;52.10;;;20.50;41.33;97335.84;5030737;28;20389;-49
2023/07/23 04:10:05;;;;;;;6.10;3.03;;;19.00;52.00;;;20.48;41.37;97334.44;5030543;28;20484;-49
2023/07/23 04:12:33;;;;;;;3.47;2.30;;;19.00;52.10;;;20.47;41.54;97330.88;5031250;28;20045;-51
2023/07/23 04:15:03;;;;;;;3.65;2.75;;;19.00;51.70;;;20.38;41.79;97329.59;5030868;28;20041;-51
2023/07/23 04:17:31;;;;;;;3.95;2.60;;;19.00;52.20;;;20.43;41.79;97338.66;5030023;28;20046;-49
2023/07/23 04:19:59;;;;;;;5.63;2.72;;;19.00;51.90;;;20.36;41.83;97340.63;5031163;28;20145;-54
2023/07/23 04:22:27;;;;;;;4.45;2.47;;;19.00;52.10;;;20.41;41.92;97340.78;5032020;28;20060;-50
2023/07/23 04:24:55;;;;;;;4.03;2.72;;;19.00;52.00;;;20.45;41.83;97341.09;5031812;28;20048;-50
2023/07/23 04:27:22;;;;;;;3.08;2.75;;;19.10;52.10;;;20.45;41.85;97339.25;5031463;28;20505;-51
2023/07/23 04:29:50;;;;;;;3.55;2.60;;;19.10;52.10;;;20.48;41.67;97345.25;5030240;28;20049;-50
2023/07/23 04:32:17;;;;;;;3.70;2.47;;;19.10;52.50;;;20.51;41.60;97342.06;5031609;28;20049;-51
2023/07/23 04:34:45;;;;;;;3.13;2.38;;;19.10;52.10;;;20.46;41.68;97345.47;5030927;28;20050;-50
2023/07/23 04:37:13;;;;;;;3.88;2.58;;;19.10;52.20;;;20.51;41.80;97353.72;5031313;28;20045;-50
2023/07/23 04:39:41;;;;;;;3.13;2.10;;;19.10;52.50;;;20.50;42.00;97351.25;5031651;28;20037;-52
2023/07/23 04:42:09;;;;;;;3.47;2.67;;;19.10;52.20;;;20.53;41.86;97346.19;5030285;28;20052;-50
2023/07/23 04:44:36;;;;;;;4.15;2.38;;;19.10;52.30;;;20.52;42.02;97347.25;5030416;28;20045;-48
2023/07/23 04:47:04;;;;;;;2.72;2.40;;;19.10;52.60;;;20.52;41.82;97347.25;5031002;28;20060;-52
2023/07/23 04:49:31;;;;;;;3.17;2.40;;;19.00;53.00;;;20.48;42.26;97351.47;5031238;28;20049;-53
2023/07/23 04:52:00;;;;;;;4.53;2.85;;;18.90;53.10;;;20.53;41.89;97348.06;5031568;28;20045;-49
2023/07/23 04:54:27;;;;;;;3.70;2.65;;;19.00;52.70;;;20.58;41.95;97354.41;5031312;28;20068;-51
2023/07/23 04:56:55;;;;;;;3.25;2.58;;;19.10;52.50;;;20.62;41.84;97346.69;5030590;28;20532;-48
2023/07/23 04:59:22;;;;;;;5.07;2.60;;;19.20;52.20;;;20.63;42.01;97342.94;5031314;28;20413;-52
2023/07/23 05:01:50;;;;;;;2.60;2.38;;;19.30;52.30;;;20.69;41.69;97349.31;5031278;28;20045;-52
2023/07/23 05:04:18;;;;;;;4.05;2.47;;;19.30;52.20;;;20.69;42.04;97352.84;5031186;28;20051;-51
2023/07/23 05:06:45;;;;;;;4.07;2.15;;;19.30;52.60;;;20.68;41.93;97353.88;5030587;28;20050;-48
2023/07/23 05:09:13;;;;;;;4.65;2.28;;;19.20;52.80;;;20.65;42.26;97355.19;5031106;28;20045;-52
2023/07/23 05:11:40;;;;;;;5.13;3.28;;;19.20;53.20;;;20.65;42.55;97352.47;5031088;28;20511;-53
2023/07/23 05:14:08;;;;;;;5.13;2.53;;;19.20;53.30;;;20.69;42.43;97357.44;5030363;28;20048;-52
2023/07/23 05:16:36;;;;;;;4.47;2.53;;;19.20;53.20;;;20.71;42.54;97361.53;5030756;28;20051;-51
2023/07/23 05:19:03;;;;;;;2.72;2.08;;;19.20;53.10;;;20.76;42.16;97358.13;5022923;28;20050;-49
2023/07/23 05:21:34;;;;;;;3.08;2.20;;;19.30;52.80;;;20.81;41.84;97360.97;5030979;28;20046;-51
2023/07/23 05:24:02;;;;;;;3.53;2.33;;;19.40;52.50;;;20.82;41.92;97355.31;5031127;28;20042;-48
2023/07/23 05:26:30;;;;;;;3.30;2.40;;;19.50;52.90;;;20.86;42.25;97358.38;5030762;28;20072;-52
2023/07/23 05:28:57;;;;;;;3.05;2.17;;;19.50;52.70;;;20.90;42.19;97356.00;5030436;28;20056;-50
2023/07/23 05:31:25;;;;;;;3.35;2.78;;;19.50;52.70;;;20.92;42.12;97360.16;5031013;28;20054;-52
2023/07/23 05:33:53;;;;;;;3.17;2.83;;;19.50;52.60;;;20.97;42.17;97354.84;5030802;28;20049;-54
2023/07/23 05:36:21;;;;;;;3.90;2.25;;;19.60;52.20;;;21.07;41.66;97362.38;5029707;28;20056;-54
2023/07/23 05:38:48;;;;;;;4.05;2.55;;;19.70;52.00;;;21.13;41.77;97360.59;5034424;28;20044;-52
2023/07/23 05:41:16;;;;;;;3.80;2.35;;;19.80;51.60;;;21.20;41.89;97356.72;5037279;28;20048;-53
2023/07/23 05:43:44;;;;;;;3.85;2.60;;;19.90;51.40;;;21.29;41.27;97353.69;5036169;28;20037;-51
2023/07/23 05:46:11;;;;;;;4.07;2.78;;;20.10;51.20;;;21.38;41.32;97354.94;5037433;28;20049;-52
2023/07/23 05:48:39;;;;;;;3.83;2.70;;;20.20;50.90;;;21.48;41.15;97359.78;5036685;28;20072;-50
2023/07/23 05:51:07;;;;;;;4.18;1.92;;;20.20;50.70;;;21.58;41.21;97357.31;5029544;28;20049;-53
2023/07/23 05:53:34;;;;;;;3.67;2.55;;;20.40;50.40;;;21.66;41.12;97356.94;5037171;28;20045;-53
2023/07/23 05:56:02;;;;;;;3.53;2.38;;;20.40;50.10;;;21.77;41.03;97356.09;5037183;28;20408;-54
2023/07/23 05:58:29;;;;;;;3.35;2.42;;;20.60;49.80;;;21.87;40.38;97352.75;5036846;28;20489;-51
2023/07/23 06:00:57;;;;;;;5.15;2.28;;;20.80;49.50;;;21.97;40.26;97352.13;5037061;28;20052;-50
2023/07/23 06:03:25;;;;;;;3.92;2.50;;;20.80;48.50;;;22.07;40.10;97352.31;5035807;28;20494;-53
2023/07/23 06:06:03;;;;;;;3.03;2.35;;;21.00;48.60;;;22.16;39.89;97355.47;5036888;28;20045;-53
2023/07/23 06:08:30;;;;;;;3.53;2.60;;;21.10;48.30;;;22.27;40.05;97356.50;5036461;28;20049;-51
2023/07/23 06:10:58;;;;;;;4.43;2.78;;;21.20;48.10;;;22.34;39.42;97363.44;5036954;28;20042;-53
2023/07/23 06:13:25;;;;;;;3.95;2.53;;;21.30;47.60;;;22.42;39.48;97360.31;5036947;28;20394;-50
2023/07/23 06:15:53;;;;;;;3.80;2.83;;;21.40;47.30;;;22.49;39.14;97353.91;5036971;28;20064;-51
2023/07/23 06:18:21;;;;;;;3.40;2.50;;;21.50;47.40;;;22.56;39.35;97354.56;5036075;28;20565;-53
2023/07/23 06:20:49;;;;;;;3.58;2.90;;;21.50;47.30;;;22.61;39.23;97360.91;5037157;28;20413;-48
2023/07/23 06:23:16;;;;;;;4.03;2.70;;;21.50;47.10;;;22.68;39.27;97362.63;5037582;28;20053;-51
2023/07/23 06:25:44;;;;;;;2.80;2.25;;;21.60;47.00;;;22.74;38.94;97365.22;5036758;28;20053;-50
2023/07/23 06:28:11;;;;;;;3.22;2.05;;;21.70;47.10;;;22.80;39.14;97368.84;5034240;28;20041;-53
2023/07/23 06:30:39;;;;;;;2.92;2.50;;;21.70;47.30;;;22.87;39.21;97357.78;5036409;28;20424;-50
2023/07/23 06:33:07;;;;;;;3.05;2.40;;;21.80;47.20;;;22.93;38.99;97354.09;5034259;28;20497;-54
2023/07/23 06:35:37;;;;;;;3.60;2.45;;;21.80;47.30;;;22.99;38.88;97358.53;5036020;28;20524;-51
2023/07/23 06:38:04;;;;;;;2.75;2.42;;;21.90;46.90;;;23.07;39.04;97362.75;5034465;28;20053;-52
2023/07/23 06:40:32;;;;;;;4.65;2.40;;;22.00;46.90;;;23.14;38.74;97366.13;5035100;28;20409;-49
2023/07/23 06:42:59;;;;;;;2.92;2.30;;;22.00;46.70;;;23.21;38.65;97369.50;5035535;28;20485;-51
2023/07/23 06:45:27;;;;;;;4.05;2.40;;;22.20;46.60;;;23.27;38.13;97373.09;5035760;28;20046;-54
2023/07/23 06:47:55;;;;;;;4.22;3.13;;;22.20;45.90;;;23.31;38.20;97366.91;5035721;28;20147;-50
2023/07/23 06:50:23;;;;;;;2.90;2.38;;;22.20;45.70;;;23.34;37.87;97365.59;5033601;28;20413;-49
2023/07/23 06:52:50;;;;;;;3.70;2.78;;;22.20;45.80;;;23.31;38.02;97366.91;5033366;28;20609;-51
2023/07/23 06:55:18;;;;;;;3.08;2.70;;;22.20;45.70;;;23.32;37.53;97365.00;5032856;28;20044;-51
2023/07/23 06:57:45;;;;;;;4.15;2.78;;;22.20;45.20;;;23.29;37.77;97363.63;5032464;28;20042;-51
2023/07/23 07:00:13;;;;;;;4.40;2.55;;;22.20;45.00;;;23.28;37.57;97364.69;5024359;28;20089;-54
2023/07/23 07:02:42;;;;;;;3.78;2.63;;;22.10;45.10;;;23.27;37.45;97368.50;5033143;28;20044;-53
2023/07/23 07:05:10;;;;;;;4.45;2.78;;;22.10;45.00;;;23.22;37.47;97362.97;5032583;28;20488;-54
2023/07/23 07:07:38;;;;;;;4.85;2.85;;;22.10;45.00;;;23.24;37.25;97362.72;5031496;28;20037;-50
2023/07/23 07:10:06;;;;;;;4.05;2.95;;;22.10;44.70;;;23.28;37.40;97359.25;5031380;28;20052;-53
2023/07/23 07:12:34;;;;;;;3.58;2.42;;;22.10;44.60;;;23.29;37.03;97360.09;5014928;28;20056;-49
2023/07/23 07:15:02;;;;;;;4.60;2.58;;;22.20;44.20;;;23.29;37.04;97355.47;5031433;28;20049;-52
2023/07/23 07:17:30;;;;;;;8.55;2.75;;;22.20;44.10;;;23.34;37.28;97360.16;5032448;28;20041;-50
2023/07/23 07:19:57;;;;;;;3.25;2.28;;;22.20;44.30;;;23.46;36.96;97354.59;5030777;28;20052;-53
2023/07/23 07:22:25;;;;;;;3.58;2.60;;;22.40;44.00;;;23.52;36.93;97350.91;5031955;28;20037;-48
2023/07/23 07:24:53;;;;;;;4.35;2.40;;;22.50;44.70;;;23.63;37.18;97349.13;5032047;28;20041;-51
2023/07/23 07:27:20;;;;;;;4.72;2.85;;;22.60;43.90;;;23.71;36.61;97359.53;5031757;28;20037;-52
2023/07/23 07:29:48;;;;;;;6.38;2.78;;;22.80;43.30;;;23.82;36.49;97355.91;5028904;28;20507;-52
2023/07/23 07:32:15;;;;;;;2.95;2.63;;;22.90;42.70;;;23.90;36.30;97358.19;5024418;28;20413;-52
2023/07/23 07:34:43;;;;;;;5.28;2.63;;;23.00;42.40;;;23.97;36.04;97349.84;5032188;28;20374;-54
2023/07/23 07:37:11;;;;;;;3.55;2.75;;;23.10;41.80;;;24.05;35.88;97351.28;5030544;28;20393;-50
2023/07/23 07:39:40;;;;;;;2.80;2.50;;;23.10;41.90;;;24.09;35.75;97345.06;5031996;28;20045;-51
2023/07/23 07:42:08;;;;;;;5.47;2.55;;;23.20;41.60;;;24.18;35.63;97350.91;5032225;28;20053;-50
2023/07/23 07:44:36;;;;;;;3.00;2.42;;;23.20;41.90;;;24.27;35.57;97352.09;5030961;28;20037;-51
2023/07/23 07:47:03;;;;;;;3.05;2.40;;;23.30;41.80;;;24.36;35.69;97345.09;5030769;28;20049;-51
2023/07/23 07:49:31;;;;;;;4.13;2.60;;;23.40;41.80;;;24.47;35.60;97347.91;5032009;28;20056;-53
2023/07/23 07:51:59;;;;;;;3.35;2.60;;;23.50;41.80;;;24.40;35.53;97345.38;5031554;28;20064;-48
2023/07/23 07:54:27;;;;;;;3.78;2.78;;;23.50;41.60;;;24.51;35.43;97355.31;5031744;28;20052;-53
2023/07/23 07:56:55;;;;;;;4.22;2.53;;;23.60;41.60;;;24.62;35.38;97347.25;5031119;28;20033;-54
2023/07/23 07:59:23;;;;;;;4.13;2.78;;;23.60;41.60;;;24.68;34.88;97355.22;5031548;28;20045;-53
2023/07/23 08:01:51;;;;;;;4.88;2.88;;;23.70;40.60;;;24.69;35.22;97351.41;5029599;28;20041;-51
2023/07/23 08:04:19;;;;;;;4.18;2.75;;;23.70;41.40;;;24.76;34.62;97345.75;5031456;28;20044;-51
2023/07/23 08:06:48;;;;;;;3.33;2.55;;;23.80;39.90;;;24.76;35.08;97353.91;5031132;28;20048;-54
2023/07/23 08:09:20;;;;;;;3.67;2.40;;;23.80;40.80;;;24.64;34.28;97359.53;5030792;28;20045;-53
2023/07/23 08:11:48;;;;;;;2.33;2.00;;;23.80;39.40;;;24.71;34.19;97360.13;5028206;28;20041;-53
2023/07/23 08:14:19;;;;;;;3.33;2.50;;;23.70;39.80;;;24.70;33.98;97357.69;5030123;28;20041;-54
2023/07/23 08:16:49;;;;;;;3.38;2.30;;;23.70;39.30;;;24.74;34.09;97354.16;5030883;28;20413;-52
2023/07/23 08:19:17;;;;;;;2.75;2.20;;;23.70;40.80;;;24.70;34.07;97369.38;5031256;28;20037;-53
2023/07/23 08:21:45;;;;;;;3.55;2.47;;;23.80;39.60;;;24.67;34.19;97360.91;5030880;28;20045;-50
2023/07/23 08:24:13;;;;;;;2.42;2.10;;;23.70;39.80;;;24.73;34.22;97378.91;5030742;28;20045;-49
2023/07/23 08:26:42;;;;;;;3.78;2.40;;;23.80;39.40;;;24.74;34.17;97362.34;5030128;28;20397;-52
2023/07/23 08:29:13;;;;;;;3.70;1.77;;;23.80;39.80;;;24.63;34.28;97352.44;5030629;28;20046;-48
2023/07/23 08:31:41;;;;;;;2.28;1.75;;;23.70;39.70;;;24.77;34.22;97348.19;5029820;28;20056;-52
2023/07/23 08:34:09;;;;;;;2.72;2.17;;;23.80;39.70;;;24.84;34.40;97369.75;5031254;28;20238;-53
2023/07/23 08:36:36;;;;;;;2.30;2.00;;;23.80;40.00;;;24.76;34.07;97348.47;5031381;28;20041;-49
2023/07/23 08:39:05;;;;;;;3.22;1.90;;;23.80;39.70;;;24.71;33.92;97362.03;5031707;28;20057;-49
2023/07/23 08:42:12;;;;;;;2.05;1.83;;;23.70;39.40;;;24.65;34.07;97341.31;5031299;28;20037;-53
2023/07/23 08:45:08;;;;;;;2.63;1.83;;;23.60;39.80;;;24.72;33.95;97356.34;5025714;28;20038;-53
2023/07/23 08:47:38;;;;;;;2.35;2.00;;;23.70;39.90;;;24.72;34.06;97359.06;5024936;28;20437;-54
2023/07/23 08:50:06;;;;;;;2.78;1.90;;;23.70;39.60;;;24.63;34.25;97354.34;5031273;28;20049;-50
2023/07/23 08:52:35;;;;;;;2.38;2.03;;;23.70;39.90;;;24.66;34.27;97351.94;5031049;28;20492;-51
2023/07/23 08:55:04;;;;;;;1.92;1.65;;;23.70;40.10;;;24.72;34.45;97348.16;5029965;28;20424;-50
2023/07/23 08:57:33;;;;;;;3.40;1.90;;;23.80;40.00;;;24.83;34.07;97359.94;5029805;28;20041;-50
2023/07/23 09:00:02;;;;;;;2.47;2.05;;;23.80;39.80;;;24.89;34.31;97358.94;5030255;28;20049;-53
2023/07/23 09:02:32;;;;;;;3.92;2.10;;;24.00;39.70;;;25.04;34.25;97363.66;5031123;28;20041;-51
2023/07/23 09:05:00;;;;;;;2.22;1.77;;;24.10;40.00;;;25.17;34.10;97359.66;5030199;28;20131;-50
2023/07/23 09:07:28;;;;;;;4.15;2.00;;;24.20;39.70;;;25.15;33.56;97349.03;5029630;28;20409;-47
2023/07/23 09:09:56;;;;;;;2.40;2.00;;;24.20;39.10;;;25.15;33.48;97357.19;5031368;28;20057;-48
2023/07/23 09:12:23;;;;;;;2.35;1.92;;;24.20;38.60;;;25.17;33.54;97356.13;5030686;28;20042;-46
2023/07/23 09:14:52;;;;;;;3.00;2.17;;;24.20;38.90;;;25.22;33.50;97358.88;5031374;28;20520;-48
2023/07/23 09:17:21;;;;;;;2.40;2.20;;;24.20;38.70;;;25.18;33.15;97366.72;5030421;28;20441;-49
2023/07/23 09:19:52;;;;;;;2.10;1.90;;;24.10;38.10;;;25.14;33.09;97357.44;5031172;28;20042;-46
2023/07/23 09:22:20;;;;;;;2.03;1.80;;;24.10;38.60;;;25.21;33.05;97355.31;5031239;28;20080;-51
2023/07/23 09:24:47;;;;;;;2.30;2.10;;;24.10;38.90;;;25.18;33.02;97353.13;5031082;28;20049;-49
2023/07/23 09:27:17;;;;;;;2.17;1.90;;;24.10;38.30;;;25.16;33.01;97358.00;5029700;28;20049;-51
2023/07/23 09:29:45;;;;;;;3.03;2.08;;;24.10;38.50;;;25.13;33.25;97345.75;5022685;28;20045;-47
2023/07/23 09:32:25;;;;;;;2.28;1.90;;;24.10;38.70;;;25.26;33.13;97346.38;5023716;28;20493;-46
2023/07/23 09:34:59;;;;;;;2.78;2.17;;;24.20;38.80;;;25.38;33.52;97347.03;5030371;28;20045;-45
2023/07/23 09:37:27;;;;;;;2.35;2.03;;;24.30;38.80;;;25.39;33.36;97345.09;5018110;28;20045;-52
2023/07/23 09:39:56;;;;;;;2.78;2.10;;;24.30;39.60;;;25.51;33.33;97342.97;5025608;28;20065;-51
2023/07/23 09:42:25;;;;;;;2.78;2.00;;;24.50;39.30;;;25.61;33.50;97345.78;5030992;28;20057;-48
2023/07/23 09:44:52;;;;;;;3.35;2.08;;;24.60;38.70;;;25.69;33.38;97355.34;5029222;28;20042;-50
2023/07/23 09:47:25;;;;;;;2.67;2.40;;;24.60;38.70;;;25.74;33.23;97353.47;5030191;28;20064;-49
2023/07/23 09:49:53;;;;;;;2.67;2.25;;;24.70;38.50;;;25.78;32.90;97336.56;5029326;28;20048;-51
2023/07/23 09:52:37;;;;;;;2.70;2.40;;;24.80;38.60;;;25.88;33.25;97344.78;5029683;28;20049;-51
2023/07/23 09:55:05;;;;;;;;;;;24.90;38.30;;;25.86;32.81;97342.34;5031673;28;20054;-48
2023/07/23 09:57:37;;;;;;;3.67;2.20;;;24.80;37.60;;;25.83;32.55;97340.13;5021095;28;19921;-48
2023/07/23 10:00:05;;;;;;;3.47;2.28;;;24.70;38.40;;;25.77;32.56;97340.41;5029721;28;20049;-48
2023/07/23 10:02:42;;;;;;;2.80;2.13;;;24.60;38.50;;;25.76;32.66;97347.72;5025680;28;20042;-52
2023/07/23 10:05:12;;;;;;;2.72;2.20;;;24.60;38.70;;;25.61;33.08;97348.50;5029421;28;20416;-51
2023/07/23 10:07:40;;;;;;;2.75;2.03;;;24.50;39.00;;;25.49;33.14;97340.56;5030158;28;20068;-50
2023/07/23 10:10:08;;;;;;;2.83;2.10;;;24.40;38.60;;;25.47;33.50;97350.88;5030357;28;20076;-48
2023/07/23 10:12:37;;;;;;;2.35;2.15;;;24.40;38.90;;;25.50;33.08;97330.47;5029452;28;20053;-51
2023/07/23 10:15:06;;;;;;;3.80;2.50;;;24.40;38.90;;;25.51;33.39;97327.47;5029541;28;20046;-51
2023/07/23 10:17:51;;;;;;;4.03;1.98;;;24.40;38.90;;;25.56;32.94;97332.13;5028578;28;20041;-50
2023/07/23 10:20:21;;;;;;;2.40;2.00;;;24.60;38.50;;;25.50;33.26;97328.53;5028759;28;20060;-51
2023/07/23 10:22:49;;;;;;;2.83;2.20;;;24.60;38.60;;;25.62;33.44;97320.16;5029436;28;20041;-49
2023/07/23 10:25:32;;;;;;;3.30;2.30;;;24.60;38.80;;;25.77;33.40;97318.59;5032742;28;20051;-51